createdAt,value
2018-11-02T00:00:47.570Z,40.77
2018-11-02T00:03:15.249Z,38.47
2018-11-02T00:05:43.005Z,39.93
2018-11-02T00:08:10.677Z,39.13
2018-11-02T00:10:38.617Z,39.27
2018-11-02T00:13:06.334Z,39.43
2018-11-02T00:15:34.104Z,37.83
2018-11-02T00:18:01.781Z,40.53
2018-11-02T00:20:29.510Z,39.97
2018-11-02T00:22:57.197Z,39.10
2018-11-02T00:25:24.870Z,37.90
2018-11-02T00:27:52.626Z,40.38
2018-11-02T00:30:20.306Z,38.53
2018-11-02T00:32:47.996Z,38.10
2018-11-02T00:35:15.734Z,39.33
2018-11-02T00:37:43.410Z,40.27
2018-11-02T00:40:11.084Z,37.83
2018-11-02T00:42:39.385Z,38.30
2018-11-02T00:45:08.860Z,38.23
2018-11-02T00:47:36.548Z,36.70
2018-11-02T00:50:05.105Z,37.50
2018-11-02T00:52:32.778Z,41.20
2018-11-02T00:55:00.454Z,39.33
2018-11-02T00:57:28.186Z,38.67
2018-11-02T00:59:55.858Z,39.50
2018-11-02T01:02:23.541Z,39.80
2018-11-02T01:04:51.253Z,37.87
2018-11-02T01:07:18.939Z,38.43
2018-11-02T01:09:46.682Z,38.33
2018-11-02T01:12:14.546Z,39.00
2018-11-02T01:14:42.262Z,39.00
2018-11-02T01:17:10.028Z,38.60
2018-11-02T01:19:37.814Z,41.93
2018-11-02T01:22:06.025Z,39.20
2018-11-02T01:24:33.909Z,37.07
2018-11-02T01:27:01.758Z,36.50
2018-11-02T01:29:29.747Z,39.03
2018-11-02T01:31:57.681Z,38.90
2018-11-02T01:34:25.590Z,35.17
2018-11-02T01:36:53.320Z,36.80
2018-11-02T01:39:21.062Z,36.77
2018-11-02T01:41:48.889Z,38.47
2018-11-02T01:44:16.649Z,37.00
2018-11-02T01:46:44.351Z,38.10
2018-11-02T01:49:12.089Z,37.47
2018-11-02T01:51:39.777Z,37.73
2018-11-02T01:54:07.491Z,39.17
2018-11-02T01:56:35.270Z,38.97
2018-11-02T01:59:02.961Z,39.10
2018-11-02T02:01:30.693Z,38.77
2018-11-02T02:03:58.414Z,39.30
2018-11-02T02:06:26.128Z,38.60
2018-11-02T02:08:53.793Z,37.27
2018-11-02T02:11:21.520Z,38.97
2018-11-02T02:13:49.194Z,39.43
2018-11-02T02:16:16.990Z,38.10
2018-11-02T02:18:44.830Z,39.17
2018-11-02T02:21:12.578Z,38.93
2018-11-02T02:23:40.345Z,38.03
2018-11-02T02:26:08.174Z,38.13
2018-11-02T02:28:35.905Z,38.03
2018-11-02T02:31:03.701Z,37.20
2018-11-02T02:33:31.502Z,36.30
2018-11-02T02:35:59.209Z,37.03
2018-11-02T02:38:26.914Z,38.80
2018-11-02T02:40:54.662Z,38.87
2018-11-02T02:43:22.444Z,38.17
2018-11-02T02:45:50.150Z,37.67
2018-11-02T02:48:17.925Z,37.63
2018-11-02T02:50:45.657Z,39.57
2018-11-02T02:53:13.477Z,37.13
2018-11-02T02:55:41.243Z,37.33
2018-11-02T02:58:09.014Z,40.23
2018-11-02T03:00:36.797Z,37.63
2018-11-02T03:03:04.913Z,39.27
2018-11-02T03:05:32.676Z,41.17
2018-11-02T03:08:00.386Z,39.53
2018-11-02T03:10:28.213Z,41.27
2018-11-02T03:12:55.963Z,40.30
2018-11-02T03:15:23.734Z,39.67
2018-11-02T03:17:51.505Z,38.70
2018-11-02T03:20:19.247Z,41.47
2018-11-02T03:22:47.019Z,39.13
2018-11-02T03:25:14.889Z,38.53
2018-11-02T03:27:42.600Z,38.87
2018-11-02T03:30:11.398Z,39.37
2018-11-02T03:32:39.172Z,39.90
2018-11-02T03:35:06.996Z,40.60
2018-11-02T03:37:34.678Z,39.70
2018-11-02T03:40:02.452Z,38.50
2018-11-02T03:42:30.193Z,40.80
2018-11-02T03:44:57.954Z,39.40
2018-11-02T03:47:25.762Z,40.00
2018-11-02T03:49:53.540Z,41.90
2018-11-02T03:52:21.259Z,39.90
2018-11-02T03:54:49.027Z,40.77
2018-11-02T03:57:16.743Z,40.67
2018-11-02T03:59:44.512Z,41.50
2018-11-02T04:02:12.259Z,40.80
2018-11-02T04:04:39.998Z,42.67
2018-11-02T04:07:07.742Z,41.50
2018-11-02T04:09:35.598Z,43.80
2018-11-02T04:12:03.343Z,44.60
2018-11-02T04:14:31.090Z,44.23
2018-11-02T04:16:58.886Z,41.97
2018-11-02T04:19:26.635Z,40.77
2018-11-02T04:21:54.343Z,43.97
2018-11-02T04:24:22.113Z,41.03
2018-11-02T04:26:49.847Z,40.57
2018-11-02T04:29:17.603Z,40.27
2018-11-02T04:31:45.416Z,41.70
2018-11-02T04:34:14.020Z,42.40
2018-11-02T04:36:41.774Z,42.90
2018-11-02T04:39:13.647Z,40.70
2018-11-02T04:41:41.410Z,42.40
2018-11-02T04:44:09.830Z,40.93
2018-11-02T04:46:38.186Z,42.10
2018-11-02T04:49:06.409Z,41.57
2018-11-02T04:51:34.123Z,43.97
2018-11-02T04:54:01.943Z,41.50
2018-11-02T04:56:29.771Z,43.30
2018-11-02T04:58:57.526Z,41.57
2018-11-02T05:01:25.291Z,41.07
2018-11-02T05:03:53.077Z,41.30
2018-11-02T05:06:21.071Z,43.87
2018-11-02T05:08:48.907Z,42.83
2018-11-02T05:11:16.753Z,41.63
2018-11-02T05:13:44.556Z,42.66
2018-11-02T05:16:12.670Z,41.13
2018-11-02T05:18:40.415Z,40.33
2018-11-02T05:21:08.658Z,40.93
2018-11-02T05:23:36.864Z,41.23
2018-11-02T05:26:04.679Z,40.40
2018-11-02T05:28:32.923Z,41.70
2018-11-02T05:31:00.692Z,42.47
2018-11-02T05:33:28.487Z,41.77
2018-11-02T05:35:56.599Z,40.97
2018-11-02T05:38:24.378Z,40.00
2018-11-02T05:40:52.239Z,38.50
2018-11-02T05:43:19.964Z,41.07
2018-11-02T05:45:47.727Z,39.50
2018-11-02T05:48:15.483Z,39.73
2018-11-02T05:50:43.223Z,39.93
2018-11-02T05:53:10.963Z,38.23
2018-11-02T05:55:38.792Z,38.13
2018-11-02T05:58:06.518Z,35.73
2018-11-02T06:00:34.367Z,37.80
2018-11-02T06:03:02.139Z,37.07
2018-11-02T06:05:30.263Z,36.63
2018-11-02T06:07:58.060Z,35.47
2018-11-02T06:10:25.836Z,33.67
2018-11-02T06:12:53.620Z,33.60
2018-11-02T06:15:21.369Z,34.60
2018-11-02T06:17:49.114Z,35.47
2018-11-02T06:20:16.894Z,34.90
2018-11-02T06:22:44.610Z,36.13
2018-11-02T06:25:12.308Z,34.43
2018-11-02T06:27:40.031Z,34.70
2018-11-02T06:30:08.867Z,32.90
2018-11-02T06:32:36.646Z,33.87
2018-11-02T06:35:05.059Z,32.53
2018-11-02T06:37:32.820Z,31.90
2018-11-02T06:40:00.560Z,34.30
2018-11-02T06:42:28.286Z,34.60
2018-11-02T06:44:56.198Z,32.87
2018-11-02T06:47:23.919Z,34.10
2018-11-02T06:49:51.660Z,32.53
2018-11-02T06:52:19.588Z,33.50
2018-11-02T06:54:47.364Z,32.87
2018-11-02T06:57:15.159Z,33.60
2018-11-02T06:59:43.120Z,33.63
2018-11-02T07:02:10.736Z,35.50
2018-11-02T07:04:38.621Z,33.23
2018-11-02T07:07:06.436Z,36.87
2018-11-02T07:09:34.181Z,37.47
2018-11-02T07:12:01.935Z,39.10
2018-11-02T07:14:29.774Z,36.53
2018-11-02T07:16:57.527Z,36.43
2018-11-02T07:19:25.257Z,36.67
2018-11-02T07:21:53.026Z,34.80
2018-11-02T07:24:20.823Z,33.23
2018-11-02T07:26:48.638Z,33.67
2018-11-02T07:29:16.443Z,33.67
2018-11-02T07:31:44.204Z,32.97
2018-11-02T07:34:12.054Z,33.57
2018-11-02T07:36:39.818Z,31.30
2018-11-02T07:39:09.307Z,31.30
2018-11-02T07:41:37.088Z,31.77
2018-11-02T07:44:04.923Z,30.83
2018-11-02T07:46:32.731Z,31.17
2018-11-02T07:49:00.490Z,30.10
2018-11-02T07:51:28.322Z,29.33
2018-11-02T07:53:56.458Z,28.03
2018-11-02T07:56:24.237Z,29.40
2018-11-02T07:58:52.058Z,25.73
2018-11-02T08:01:19.802Z,28.60
2018-11-02T08:03:47.515Z,29.57
2018-11-02T08:06:16.324Z,31.07
2018-11-02T08:08:44.062Z,28.43
2018-11-02T08:11:11.810Z,28.57
2018-11-02T08:13:39.635Z,32.47
2018-11-02T08:16:07.362Z,33.20
2018-11-02T08:18:35.111Z,34.80
2018-11-02T08:21:02.952Z,33.77
2018-11-02T08:23:30.700Z,33.43
2018-11-02T08:25:58.448Z,36.47
2018-11-02T08:28:26.232Z,30.00
2018-11-02T08:30:53.965Z,35.17
2018-11-02T08:33:21.791Z,36.13
2018-11-02T08:35:49.592Z,34.50
2018-11-02T08:38:17.275Z,35.13
2018-11-02T08:40:44.955Z,35.23
2018-11-02T08:43:12.669Z,35.20
2018-11-02T08:45:40.364Z,35.13
2018-11-02T08:48:08.054Z,37.00
2018-11-02T08:50:35.770Z,34.30
2018-11-02T08:53:03.623Z,34.50
2018-11-02T08:55:31.315Z,35.37
2018-11-02T08:57:59.167Z,35.17
2018-11-02T09:00:26.818Z,28.20
2018-11-02T09:02:54.499Z,30.77
2018-11-02T09:05:22.277Z,32.37
2018-11-02T09:07:50.056Z,32.30
2018-11-02T09:10:17.823Z,33.27
2018-11-02T09:12:45.671Z,29.60
2018-11-02T09:15:13.439Z,32.73
2018-11-02T09:17:41.197Z,30.20
2018-11-02T09:20:09.059Z,33.27
2018-11-02T09:22:36.884Z,32.90
2018-11-02T09:25:05.953Z,31.40
2018-11-02T09:27:33.824Z,32.57
2018-11-02T09:30:01.526Z,32.60
2018-11-02T09:32:29.205Z,30.90
2018-11-02T09:34:56.955Z,29.37
2018-11-02T09:37:24.798Z,31.10
2018-11-02T09:39:52.514Z,30.13
2018-11-02T09:42:20.323Z,29.13
2018-11-02T09:44:48.144Z,29.13
2018-11-02T09:47:15.932Z,30.13
2018-11-02T09:49:43.752Z,30.57
2018-11-02T09:52:11.557Z,28.37
2018-11-02T09:54:39.247Z,30.13
2018-11-02T09:57:07.088Z,29.37
2018-11-02T09:59:34.903Z,29.73
2018-11-02T10:02:02.804Z,24.63
2018-11-02T10:04:30.673Z,29.90
2018-11-02T10:06:58.555Z,32.23
2018-11-02T10:09:26.343Z,31.07
2018-11-02T10:11:54.154Z,31.33
2018-11-02T10:14:22.007Z,34.67
2018-11-02T10:16:49.731Z,31.13
2018-11-02T10:19:17.507Z,31.03
2018-11-02T10:21:45.255Z,29.03
2018-11-02T10:24:13.027Z,31.07
2018-11-02T10:26:40.907Z,30.80
2018-11-02T10:29:08.755Z,25.67
2018-11-02T10:31:36.631Z,27.77
2018-11-02T10:34:04.630Z,27.77
2018-11-02T10:36:33.068Z,28.07
2018-11-02T10:39:01.093Z,27.77
2018-11-02T10:41:32.803Z,25.37
2018-11-02T10:44:00.799Z,27.43
2018-11-02T10:46:28.659Z,24.37
2018-11-02T10:48:56.420Z,24.77
2018-11-02T10:51:24.200Z,24.90
2018-11-02T10:53:51.947Z,25.03
2018-11-02T10:56:19.970Z,25.70
2018-11-02T10:58:47.765Z,25.07
2018-11-02T11:01:21.202Z,25.33
2018-11-02T11:03:48.952Z,24.40
2018-11-02T11:06:16.768Z,25.20
2018-11-02T11:08:44.719Z,24.03
2018-11-02T11:11:12.574Z,22.63
2018-11-02T11:13:40.764Z,24.63
2018-11-02T11:16:08.274Z,22.90
2018-11-02T11:18:36.067Z,25.20
2018-11-02T11:21:03.900Z,25.83
2018-11-02T11:23:31.788Z,23.70
2018-11-02T11:25:59.582Z,24.23
2018-11-02T11:28:27.390Z,24.77
2018-11-02T11:30:55.246Z,25.70
2018-11-02T11:33:23.029Z,25.20
2018-11-02T11:35:50.814Z,25.83
2018-11-02T11:38:18.691Z,25.80
2018-11-02T11:40:46.488Z,26.07
2018-11-02T11:43:14.275Z,25.47
2018-11-02T11:45:42.134Z,25.13
2018-11-02T11:48:09.979Z,24.93
2018-11-02T11:50:37.776Z,22.77
2018-11-02T11:53:05.620Z,24.63
2018-11-02T11:55:33.435Z,24.90
2018-11-02T11:58:01.281Z,24.33
2018-11-02T12:00:29.127Z,24.43
2018-11-02T12:02:56.969Z,23.33
2018-11-02T12:05:24.771Z,23.37
2018-11-02T12:07:52.594Z,23.77
2018-11-02T12:10:23.229Z,24.53
2018-11-02T12:12:51.222Z,24.60
2018-11-02T12:15:20.863Z,24.67
2018-11-02T12:17:48.933Z,24.77
2018-11-02T12:20:18.310Z,24.53
2018-11-02T12:22:46.783Z,25.10
2018-11-02T12:25:14.876Z,24.13
2018-11-02T12:27:42.723Z,23.73
2018-11-02T12:30:12.811Z,23.67
2018-11-02T12:32:40.595Z,22.13
2018-11-02T12:35:10.064Z,21.53
2018-11-02T12:37:37.891Z,22.53
2018-11-02T12:40:07.732Z,23.10
2018-11-02T12:42:35.875Z,22.53
2018-11-02T12:45:03.689Z,23.20
2018-11-02T12:47:31.544Z,23.50
2018-11-02T12:49:59.295Z,23.70
2018-11-02T12:52:27.122Z,23.50
2018-11-02T12:54:54.875Z,23.83
2018-11-02T12:57:22.615Z,22.53
2018-11-02T12:59:50.420Z,24.97
2018-11-02T13:02:18.243Z,24.50
2018-11-02T13:04:46.063Z,24.07
2018-11-02T13:07:13.917Z,23.63
2018-11-02T13:09:41.814Z,26.20
2018-11-02T13:12:09.503Z,23.67
2018-11-02T13:14:37.412Z,24.93
2018-11-02T13:17:05.276Z,25.67
2018-11-02T13:19:33.046Z,24.60
2018-11-02T13:22:00.931Z,26.33
2018-11-02T13:24:28.546Z,26.93
2018-11-02T13:26:56.424Z,26.77
2018-11-02T13:29:24.216Z,25.63
2018-11-02T13:31:52.044Z,26.97
2018-11-02T13:34:20.647Z,25.07
2018-11-02T13:36:48.522Z,25.90
2018-11-02T13:39:16.290Z,24.17
2018-11-02T13:41:44.088Z,26.83
2018-11-02T13:44:11.908Z,27.67
2018-11-02T13:46:39.679Z,28.83
2018-11-02T13:49:08.399Z,28.37
2018-11-02T13:51:36.215Z,28.13
2018-11-02T13:54:04.065Z,26.50
2018-11-02T13:56:31.828Z,26.30
2018-11-02T13:58:59.636Z,25.03
2018-11-02T14:01:27.475Z,26.03
2018-11-02T14:03:55.202Z,25.30
2018-11-02T14:06:23.030Z,25.50
2018-11-02T14:08:50.819Z,24.47
2018-11-02T14:11:18.603Z,24.23
2018-11-02T14:13:46.348Z,23.50
2018-11-02T14:16:14.135Z,22.23
2018-11-02T14:18:41.980Z,23.40
2018-11-02T14:21:09.743Z,23.07
2018-11-02T14:23:37.434Z,23.40
2018-11-02T14:26:05.742Z,23.93
2018-11-02T14:28:33.574Z,22.87
2018-11-02T14:31:01.344Z,22.80
2018-11-02T14:33:29.157Z,23.37
2018-11-02T14:35:56.956Z,24.33
2018-11-02T14:38:24.718Z,24.20
2018-11-02T14:40:52.523Z,24.57
2018-11-02T14:43:20.299Z,24.70
2018-11-02T14:45:48.063Z,24.17
2018-11-02T14:48:15.847Z,25.13
2018-11-02T14:50:43.640Z,25.27
2018-11-02T14:53:11.401Z,25.47
2018-11-02T14:55:39.232Z,25.37
2018-11-02T14:58:07.336Z,26.67
2018-11-02T15:00:35.129Z,27.37
2018-11-02T15:03:02.928Z,28.23
2018-11-02T15:05:30.726Z,28.93
2018-11-02T15:07:58.479Z,30.03
2018-11-02T15:10:26.335Z,32.03
2018-11-02T15:12:54.099Z,31.07
2018-11-02T15:15:21.948Z,33.17
2018-11-02T15:17:49.745Z,32.27
2018-11-02T15:20:17.570Z,33.40
2018-11-02T15:22:45.327Z,34.67
2018-11-02T15:25:13.032Z,34.30
2018-11-02T15:27:40.824Z,35.30
2018-11-02T15:30:10.619Z,34.33
2018-11-02T15:32:38.477Z,34.33
2018-11-02T15:35:07.064Z,35.00
2018-11-02T15:37:34.856Z,37.73
2018-11-02T15:40:02.655Z,36.10
2018-11-02T15:42:30.476Z,36.53
2018-11-02T15:44:58.172Z,35.60
2018-11-02T15:47:25.867Z,36.27
2018-11-02T15:49:53.671Z,38.40
2018-11-02T15:52:21.435Z,38.10
2018-11-02T15:54:49.187Z,36.90
2018-11-02T15:57:16.999Z,36.47
2018-11-02T15:59:44.751Z,42.67
2018-11-02T16:02:12.554Z,37.40
2018-11-02T16:04:40.411Z,35.87
2018-11-02T16:07:08.235Z,37.33
2018-11-02T16:09:35.952Z,36.50
2018-11-02T16:12:04.002Z,36.87
2018-11-02T16:14:31.787Z,38.37
2018-11-02T16:16:59.635Z,36.30
2018-11-02T16:19:27.375Z,37.00
2018-11-02T16:21:55.233Z,35.43
2018-11-02T16:24:23.029Z,36.47
2018-11-02T16:26:50.887Z,36.77
2018-11-02T16:29:18.663Z,37.67
2018-11-02T16:31:46.449Z,37.50
2018-11-02T16:34:14.771Z,37.27
2018-11-02T16:36:42.527Z,38.47
2018-11-02T16:39:11.535Z,38.87
2018-11-02T16:41:40.187Z,39.93
2018-11-02T16:44:08.383Z,38.60
2018-11-02T16:46:36.156Z,39.53
2018-11-02T16:49:04.023Z,39.53
2018-11-02T16:51:31.776Z,40.13
2018-11-02T16:53:59.651Z,41.20
2018-11-02T16:56:27.509Z,38.53
2018-11-02T16:58:55.286Z,39.33
2018-11-02T17:01:23.093Z,37.10
2018-11-02T17:03:50.907Z,38.53
2018-11-02T17:06:18.707Z,38.77
2018-11-02T17:08:46.474Z,39.23
2018-11-02T17:11:14.271Z,39.00
2018-11-02T17:13:42.064Z,37.93
2018-11-02T17:16:09.793Z,39.40
2018-11-02T17:18:37.554Z,40.33
2018-11-02T17:21:05.595Z,40.47
2018-11-02T17:23:33.367Z,39.33
2018-11-02T17:26:01.189Z,38.40
2018-11-02T17:28:29.133Z,41.23
2018-11-02T17:30:56.848Z,39.97
2018-11-02T17:33:24.593Z,40.47
2018-11-02T17:35:52.391Z,38.27
2018-11-02T17:38:20.299Z,40.33
2018-11-02T17:40:48.074Z,41.27
2018-11-02T17:43:15.831Z,37.37
2018-11-02T17:45:43.648Z,36.97
2018-11-02T17:48:11.479Z,39.33
2018-11-02T17:50:39.207Z,37.37
2018-11-02T17:53:07.082Z,37.33
2018-11-02T17:55:34.807Z,36.80
2018-11-02T17:58:02.559Z,35.87
2018-11-02T18:00:30.390Z,35.03
2018-11-02T18:02:58.191Z,37.80
2018-11-02T18:05:25.902Z,36.20
2018-11-02T18:07:53.711Z,38.20
2018-11-02T18:10:21.514Z,36.90
2018-11-02T18:12:49.255Z,38.40
2018-11-02T18:15:17.040Z,46.57
2018-11-02T18:17:44.860Z,39.27
2018-11-02T18:20:14.285Z,40.63
2018-11-02T18:22:42.327Z,38.60
2018-11-02T18:25:10.388Z,35.50
2018-11-02T18:27:38.100Z,33.97
2018-11-02T18:30:06.995Z,36.10
2018-11-02T18:32:34.876Z,35.70
2018-11-02T18:35:02.867Z,35.67
2018-11-02T18:37:30.483Z,37.30
2018-11-02T18:39:58.312Z,36.73
2018-11-02T18:42:26.183Z,36.60
2018-11-02T18:44:53.927Z,36.57
2018-11-02T18:47:21.849Z,36.23
2018-11-02T18:49:49.581Z,37.07
2018-11-02T18:52:17.334Z,38.93
2018-11-02T18:54:45.135Z,36.80
2018-11-02T18:57:12.847Z,34.93
2018-11-02T18:59:40.663Z,34.13
2018-11-02T19:02:08.536Z,34.00
2018-11-02T19:04:36.403Z,34.67
2018-11-02T19:07:04.277Z,34.77
2018-11-02T19:09:32.041Z,35.50
2018-11-02T19:11:59.825Z,38.73
2018-11-02T19:14:27.575Z,38.63
2018-11-02T19:16:55.315Z,39.03
2018-11-02T19:19:23.143Z,38.40
2018-11-02T19:21:50.896Z,39.20
2018-11-02T19:24:18.688Z,42.43
2018-11-02T19:26:46.543Z,41.90
2018-11-02T19:29:14.447Z,36.30
2018-11-02T19:31:42.322Z,35.87
2018-11-02T19:34:10.160Z,37.37
2018-11-02T19:36:38.449Z,39.17
2018-11-02T19:39:09.945Z,35.73
2018-11-02T19:41:39.295Z,39.00
2018-11-02T19:44:07.161Z,39.00
2018-11-02T19:46:34.935Z,41.20
2018-11-02T19:49:02.824Z,39.17
2018-11-02T19:51:30.595Z,39.30
2018-11-02T19:53:58.459Z,43.27
2018-11-02T19:56:26.196Z,42.23
2018-11-02T19:58:53.963Z,40.60
2018-11-02T20:01:21.723Z,41.30
2018-11-02T20:03:49.518Z,40.73
2018-11-02T20:06:17.240Z,42.30
2018-11-02T20:08:45.043Z,40.50
2018-11-02T20:11:12.811Z,42.87
2018-11-02T20:13:41.034Z,60.50
2018-11-02T20:16:09.142Z,46.77
2018-11-02T20:18:37.624Z,36.47
2018-11-02T20:21:05.995Z,37.00
2018-11-02T20:23:34.630Z,39.10
2018-11-02T20:26:03.117Z,39.33
2018-11-02T20:28:31.396Z,40.10
2018-11-02T20:30:59.643Z,40.93
2018-11-02T20:33:27.908Z,38.57
2018-11-02T20:35:56.212Z,39.63
2018-11-02T20:38:24.716Z,41.93
2018-11-02T20:40:52.739Z,39.53
2018-11-02T20:43:21.241Z,38.43
2018-11-02T20:45:49.525Z,38.47
2018-11-02T20:48:17.759Z,38.23
2018-11-02T20:50:46.070Z,40.43
2018-11-02T20:53:13.879Z,37.77
2018-11-02T20:55:41.638Z,40.70
2018-11-02T20:58:09.471Z,41.00
2018-11-02T21:00:37.268Z,40.60
2018-11-02T21:03:05.672Z,42.60
2018-11-02T21:05:34.114Z,42.30
2018-11-02T21:08:02.487Z,42.77
2018-11-02T21:10:30.811Z,41.23
2018-11-02T21:12:59.062Z,42.93
2018-11-02T21:15:27.535Z,42.00
2018-11-02T21:17:55.336Z,40.67
2018-11-02T21:20:24.514Z,48.60
2018-11-02T21:22:52.908Z,50.07
2018-11-02T21:25:21.120Z,50.33
2018-11-02T21:27:49.647Z,47.43
2018-11-02T21:30:25.303Z,43.87
2018-11-02T21:32:54.179Z,45.73
2018-11-02T21:35:22.968Z,43.93
2018-11-02T21:37:51.593Z,46.60
2018-11-02T21:40:20.999Z,45.73
2018-11-02T21:42:49.192Z,51.73
2018-11-02T21:45:18.651Z,52.90
2018-11-02T21:47:47.050Z,54.70
2018-11-02T21:50:15.691Z,47.93
2018-11-02T21:52:44.234Z,50.13
2018-11-02T21:55:12.589Z,49.00
2018-11-02T21:57:41.036Z,50.83
2018-11-02T22:00:13.563Z,49.30
2018-11-02T22:02:41.974Z,43.40
2018-11-02T22:05:11.595Z,44.40
2018-11-02T22:07:40.071Z,45.30
2018-11-02T22:10:08.862Z,48.83
2018-11-02T22:12:37.579Z,51.67
2018-11-02T22:15:06.090Z,51.47
2018-11-02T22:17:34.280Z,48.30
2018-11-02T22:20:02.706Z,51.60
2018-11-02T22:22:31.097Z,51.33
2018-11-02T22:24:59.559Z,53.93
2018-11-02T22:27:28.241Z,51.93
2018-11-02T22:29:56.605Z,50.30
2018-11-02T22:32:25.024Z,57.37
2018-11-02T22:34:53.144Z,55.07
2018-11-02T22:37:21.604Z,51.00
2018-11-02T22:39:49.844Z,52.70
2018-11-02T22:42:18.179Z,51.33
2018-11-02T22:44:46.429Z,51.40
2018-11-02T22:47:14.600Z,49.87
2018-11-02T22:49:42.725Z,49.33
2018-11-02T22:52:11.126Z,50.63
2018-11-02T22:54:39.511Z,51.47
2018-11-02T22:57:07.655Z,47.67
2018-11-02T22:59:35.885Z,46.53
2018-11-02T23:02:04.336Z,50.10
2018-11-02T23:04:32.809Z,55.73
2018-11-02T23:07:02.959Z,56.14
2018-11-02T23:09:31.351Z,53.07
2018-11-02T23:11:59.703Z,54.90
2018-11-02T23:14:28.180Z,56.43
2018-11-02T23:16:56.583Z,56.93
2018-11-02T23:19:25.142Z,63.33
2018-11-02T23:21:53.255Z,58.67
2018-11-02T23:24:21.558Z,60.87
2018-11-02T23:26:49.760Z,56.10
2018-11-02T23:29:18.285Z,56.33
2018-11-02T23:31:46.499Z,57.63
2018-11-02T23:34:15.055Z,55.33
2018-11-02T23:36:43.755Z,56.70
2018-11-02T23:39:12.140Z,55.47
2018-11-02T23:41:40.403Z,56.07
2018-11-02T23:44:08.722Z,54.30
2018-11-02T23:46:36.771Z,53.43
2018-11-02T23:49:05.339Z,55.37
2018-11-02T23:51:33.590Z,50.80
2018-11-02T23:54:01.784Z,53.13
2018-11-02T23:56:30.051Z,52.37
2018-11-02T23:58:58.382Z,51.17
